createdAt,value
2024-01-22T00:01:22.950Z,13.95
2024-01-22T00:04:10.157Z,14.23
2024-01-22T00:06:57.071Z,14.68
2024-01-22T00:09:43.794Z,13.96
2024-01-22T00:12:32.390Z,13.59
2024-01-22T00:15:19.532Z,14.10
2024-01-22T00:18:06.786Z,14.19
2024-01-22T00:20:53.626Z,14.32
2024-01-22T00:23:40.833Z,14.23
2024-01-22T00:26:27.415Z,14.51
2024-01-22T00:29:15.688Z,14.14
2024-01-22T00:32:02.404Z,13.29
2024-01-22T00:34:49.405Z,14.30
2024-01-22T00:37:36.167Z,14.03
2024-01-22T00:40:23.046Z,13.92
2024-01-22T00:43:09.836Z,14.89
2024-01-22T00:45:58.579Z,15.22
2024-01-22T00:48:45.479Z,14.77
2024-01-22T00:51:32.802Z,14.46
2024-01-22T00:54:20.671Z,14.29
2024-01-22T00:57:07.235Z,14.01
2024-01-22T01:02:41.934Z,14.62
2024-01-22T01:05:28.656Z,14.33
2024-01-22T01:08:15.525Z,14.11
2024-01-22T01:11:03.076Z,14.18
2024-01-22T01:13:49.839Z,13.90
2024-01-22T01:16:36.743Z,14.52
2024-01-22T01:19:25.083Z,14.22
2024-01-22T01:22:11.979Z,14.99
2024-01-22T01:24:58.670Z,14.62
2024-01-22T01:27:45.630Z,14.33
2024-01-22T01:30:32.771Z,14.63
2024-01-22T01:33:19.711Z,15.29
2024-01-22T01:36:08.243Z,14.94
2024-01-22T01:38:55.100Z,15.08
2024-01-22T01:41:41.750Z,14.69
2024-01-22T01:44:49.627Z,14.71
2024-01-22T01:47:36.660Z,14.84
2024-01-22T01:50:24.427Z,14.08
2024-01-22T01:53:12.985Z,14.85
2024-01-22T01:56:00.139Z,14.52
2024-01-22T01:58:47.267Z,14.81
2024-01-22T02:01:34.062Z,14.32
2024-01-22T02:04:20.772Z,13.67
2024-01-22T02:07:07.645Z,14.52
2024-01-22T02:09:56.176Z,14.23
2024-01-22T02:12:42.954Z,14.81
2024-01-22T02:15:29.713Z,14.98
2024-01-22T02:18:16.887Z,14.78
2024-01-22T02:21:03.675Z,14.53
2024-01-22T02:23:51.943Z,14.28
2024-01-22T02:26:38.590Z,14.53
2024-01-22T02:29:25.658Z,14.82
2024-01-22T02:32:12.387Z,15.46
2024-01-22T02:34:59.182Z,14.94
2024-01-22T02:37:46.514Z,15.01
2024-01-22T02:40:34.543Z,14.56
2024-01-22T02:43:21.313Z,15.36
2024-01-22T02:46:08.247Z,14.66
2024-01-22T02:48:55.414Z,14.40
2024-01-22T02:51:44.423Z,15.06
2024-01-22T02:54:30.946Z,15.15
2024-01-22T02:57:19.370Z,14.80
2024-01-22T03:00:08.761Z,14.07
2024-01-22T03:02:55.555Z,15.12
2024-01-22T03:05:43.008Z,15.94
2024-01-22T03:08:30.019Z,15.16
2024-01-22T03:11:16.970Z,14.44
2024-01-22T03:14:05.259Z,14.66
2024-01-22T03:16:52.029Z,14.68
2024-01-22T03:19:39.148Z,15.69
2024-01-22T03:22:25.931Z,15.78
2024-01-22T03:25:15.415Z,15.71
2024-01-22T03:28:01.998Z,14.90
2024-01-22T03:30:50.368Z,15.12
2024-01-22T03:33:37.126Z,15.49
2024-01-22T03:36:25.232Z,15.32
2024-01-22T03:39:13.862Z,15.39
2024-01-22T03:42:00.750Z,15.53
2024-01-22T03:44:47.953Z,15.79
2024-01-22T03:47:35.979Z,15.49
2024-01-22T03:50:22.920Z,14.90
2024-01-22T03:53:09.642Z,15.53
2024-01-22T03:55:56.563Z,15.71
2024-01-22T03:58:43.439Z,15.61
2024-01-22T04:01:30.375Z,15.93
2024-01-22T04:04:18.685Z,15.48
2024-01-22T04:07:05.704Z,16.03
2024-01-22T04:09:52.842Z,16.04
2024-01-22T04:12:40.488Z,15.97
2024-01-22T04:15:27.484Z,16.88
2024-01-22T04:18:14.623Z,15.98
2024-01-22T04:21:03.060Z,15.73
2024-01-22T04:23:49.613Z,15.56
2024-01-22T04:26:36.460Z,15.88
2024-01-22T04:29:23.330Z,16.07
2024-01-22T04:32:10.216Z,16.16
2024-01-22T04:34:57.039Z,15.84
2024-01-22T04:37:45.496Z,15.53
2024-01-22T04:40:32.473Z,15.81
2024-01-22T04:43:23.163Z,15.50
2024-01-22T04:46:10.348Z,15.46
2024-01-22T04:48:57.155Z,14.93
2024-01-22T04:51:44.857Z,15.06
2024-01-22T04:54:32.899Z,15.02
2024-01-22T04:57:20.067Z,16.15
2024-01-22T05:00:08.632Z,15.58
2024-01-22T05:02:57.212Z,15.22
2024-01-22T05:05:45.219Z,15.41
2024-01-22T05:08:32.028Z,16.75
2024-01-22T05:11:20.402Z,15.47
2024-01-22T05:14:06.977Z,15.63
2024-01-22T05:16:53.871Z,15.80
2024-01-22T05:19:40.732Z,16.12
2024-01-22T05:22:27.513Z,16.13
2024-01-22T05:25:14.519Z,16.45
2024-01-22T05:28:02.976Z,15.76
2024-01-22T05:30:49.575Z,16.31
2024-01-22T05:33:36.557Z,16.38
2024-01-22T05:36:23.446Z,16.58
2024-01-22T05:39:10.226Z,16.17
2024-01-22T05:41:57.127Z,17.03
2024-01-22T05:44:45.465Z,15.70
2024-01-22T05:47:32.973Z,15.55
2024-01-22T05:50:19.879Z,15.60
2024-01-22T05:53:07.061Z,15.65
2024-01-22T05:55:53.796Z,15.86
2024-01-22T05:58:40.456Z,16.68
2024-01-22T06:01:31.135Z,17.08
2024-01-22T06:04:17.747Z,16.64
2024-01-22T06:07:06.162Z,15.69
2024-01-22T06:09:59.146Z,16.35
2024-01-22T06:12:55.008Z,17.00
2024-01-22T06:15:42.675Z,17.02
2024-01-22T06:18:31.145Z,16.39
2024-01-22T06:21:18.030Z,15.81
2024-01-22T06:24:05.648Z,15.96
2024-01-22T06:26:52.473Z,15.97
2024-01-22T06:29:39.712Z,16.67
2024-01-22T06:32:28.588Z,16.78
2024-01-22T06:35:18.147Z,16.31
2024-01-22T06:38:06.838Z,16.79
2024-01-22T06:40:53.639Z,16.61
2024-01-22T06:43:40.863Z,16.45
2024-01-22T06:46:27.554Z,17.18
2024-01-22T06:49:14.534Z,17.93
2024-01-22T06:52:02.832Z,17.39
2024-01-22T06:54:49.405Z,16.63
2024-01-22T06:57:36.321Z,17.03
2024-01-22T07:00:23.914Z,16.98
2024-01-22T07:03:10.673Z,17.19
2024-01-22T07:05:57.670Z,17.51
2024-01-22T07:08:45.658Z,17.12
2024-01-22T07:11:32.696Z,17.15
2024-01-22T07:14:19.381Z,16.64
2024-01-22T07:17:06.595Z,16.77
2024-01-22T07:19:54.317Z,17.32
2024-01-22T07:22:43.605Z,17.27
2024-01-22T07:25:35.685Z,18.17
2024-01-22T07:28:22.414Z,17.58
2024-01-22T07:31:09.150Z,17.88
2024-01-22T07:33:56.620Z,16.96
2024-01-22T07:36:43.828Z,17.49
2024-01-22T07:39:31.024Z,17.48
2024-01-22T07:42:19.216Z,17.09
2024-01-22T07:45:07.356Z,16.51
2024-01-22T07:47:54.552Z,17.85
2024-01-22T07:50:41.379Z,17.84
2024-01-22T07:53:28.653Z,17.65
2024-01-22T07:56:15.602Z,16.96
2024-01-22T07:59:05.021Z,17.24
2024-01-22T08:01:51.739Z,17.21
2024-01-22T08:04:39.045Z,18.15
2024-01-22T08:07:25.793Z,17.49
2024-01-22T08:10:13.979Z,17.85
2024-01-22T08:13:00.682Z,17.97
2024-01-22T08:15:49.475Z,17.27
2024-01-22T08:18:36.489Z,17.03
2024-01-22T08:21:23.177Z,17.09
2024-01-22T08:24:10.159Z,16.62
2024-01-22T08:26:57.368Z,16.17
2024-01-22T08:29:44.121Z,16.35
2024-01-22T08:32:32.549Z,16.34
2024-01-22T08:35:20.614Z,17.12
2024-01-22T08:38:07.362Z,16.38
2024-01-22T08:40:54.186Z,17.03
2024-01-22T08:43:41.413Z,16.80
2024-01-22T08:46:28.390Z,17.09
2024-01-22T08:49:16.594Z,17.61
2024-01-22T08:52:04.607Z,17.33
2024-01-22T08:54:51.475Z,16.14
2024-01-22T08:57:38.553Z,16.92
2024-01-22T09:00:25.962Z,16.47
2024-01-22T09:03:12.831Z,16.80
2024-01-22T09:06:01.505Z,15.72
2024-01-22T09:08:47.984Z,16.27
2024-01-22T09:11:34.825Z,16.70
2024-01-22T09:14:21.887Z,16.59
2024-01-22T09:17:08.698Z,16.47
2024-01-22T09:19:55.536Z,17.48
2024-01-22T09:22:43.975Z,17.01
2024-01-22T09:25:30.655Z,17.12
2024-01-22T09:28:17.407Z,16.25
2024-01-22T09:31:04.630Z,16.57
2024-01-22T09:33:54.802Z,17.13
2024-01-22T09:36:41.532Z,16.32
2024-01-22T09:39:29.740Z,16.00
2024-01-22T09:42:18.889Z,17.38
2024-01-22T09:45:06.979Z,17.08
2024-01-22T09:47:53.946Z,16.23
2024-01-22T09:50:40.830Z,16.99
2024-01-22T09:53:29.700Z,17.85
2024-01-22T09:56:21.184Z,16.57
2024-01-22T09:59:18.445Z,16.92
2024-01-22T10:02:06.081Z,17.59
2024-01-22T10:04:54.371Z,18.48
2024-01-22T10:07:41.258Z,17.33
2024-01-22T10:10:28.434Z,17.02
2024-01-22T10:13:18.524Z,16.90
2024-01-22T10:16:12.331Z,18.00
2024-01-22T10:19:00.792Z,17.07
2024-01-22T10:21:48.003Z,17.54
2024-01-22T10:24:34.629Z,17.76
2024-01-22T10:27:21.515Z,17.48
2024-01-22T10:30:15.450Z,17.01
2024-01-22T10:33:11.476Z,17.77
2024-01-22T10:35:58.943Z,16.76
2024-01-22T10:38:46.748Z,18.57
2024-01-22T10:41:36.455Z,18.64
2024-01-22T10:44:24.937Z,18.37
2024-01-22T10:47:13.332Z,18.16
2024-01-22T10:50:04.828Z,18.83
2024-01-22T10:52:53.373Z,18.47
2024-01-22T10:55:40.904Z,18.03
2024-01-22T10:58:29.723Z,19.08
2024-01-22T11:01:18.092Z,18.92
2024-01-22T11:04:09.963Z,18.72
2024-01-22T11:07:02.368Z,18.11
2024-01-22T11:09:53.983Z,18.99
2024-01-22T11:12:44.778Z,18.64
2024-01-22T11:15:31.637Z,18.89
2024-01-22T11:18:18.942Z,18.80
2024-01-22T11:21:22.057Z,18.89
2024-01-22T11:24:13.894Z,19.47
2024-01-22T11:27:06.836Z,18.35
2024-01-22T11:29:53.622Z,18.67
2024-01-22T11:32:43.824Z,18.68
2024-01-22T11:35:37.610Z,18.63
2024-01-22T11:38:53.365Z,18.79
2024-01-22T11:41:42.449Z,18.61
2024-01-22T11:44:29.236Z,18.51
2024-01-22T11:47:16.591Z,18.37
2024-01-22T11:50:06.473Z,18.34
2024-01-22T11:53:01.218Z,17.97
2024-01-22T11:56:02.683Z,20.25
2024-01-22T11:58:49.582Z,19.52
2024-01-22T12:01:36.558Z,20.32
2024-01-22T12:04:23.796Z,19.56
2024-01-22T12:07:10.729Z,19.85
2024-01-22T12:09:57.244Z,20.12
2024-01-22T12:12:50.762Z,19.64
2024-01-22T12:15:37.334Z,20.28
2024-01-22T12:18:25.278Z,20.63
2024-01-22T12:21:13.226Z,18.99
2024-01-22T12:23:59.754Z,19.61
2024-01-22T12:26:46.795Z,19.34
2024-01-22T12:29:34.967Z,20.57
2024-01-22T12:32:21.899Z,20.92
2024-01-22T12:35:09.920Z,19.33
2024-01-22T12:37:56.988Z,20.14
2024-01-22T12:40:44.015Z,19.73
2024-01-22T12:43:31.000Z,20.17
2024-01-22T12:46:21.134Z,20.82
2024-01-22T12:49:08.744Z,20.07
2024-01-22T12:51:55.489Z,20.62
2024-01-22T12:54:42.443Z,20.93
2024-01-22T12:57:29.280Z,20.57
2024-01-22T13:00:17.270Z,21.55
2024-01-22T13:03:05.728Z,20.91
2024-01-22T13:05:52.866Z,20.78
2024-01-22T13:08:39.774Z,20.57
2024-01-22T13:11:26.660Z,20.81
2024-01-22T13:14:13.497Z,20.88
2024-01-22T13:17:02.734Z,20.72
2024-01-22T13:19:50.833Z,20.49
2024-01-22T13:22:37.743Z,20.81
2024-01-22T13:25:24.605Z,20.66
2024-01-22T13:28:11.638Z,21.35
2024-01-22T13:30:58.429Z,20.38
2024-01-22T13:33:50.171Z,21.19
2024-01-22T13:36:40.396Z,21.09
2024-01-22T13:39:27.987Z,20.56
2024-01-22T13:42:15.008Z,20.03
2024-01-22T13:45:01.848Z,20.26
2024-01-22T13:47:48.959Z,20.41
2024-01-22T13:50:35.684Z,20.53
2024-01-22T13:53:23.872Z,20.44
2024-01-22T13:56:10.708Z,20.79
2024-01-22T13:58:58.068Z,19.64
2024-01-22T14:01:44.756Z,20.31
2024-01-22T14:04:32.701Z,20.44
2024-01-22T14:07:19.535Z,21.08
2024-01-22T14:10:08.987Z,20.98
2024-01-22T14:12:55.728Z,21.13
2024-01-22T14:15:42.668Z,20.91
2024-01-22T14:18:29.731Z,21.43
2024-01-22T14:21:16.737Z,20.89
2024-01-22T14:24:03.702Z,21.01
2024-01-22T14:26:52.228Z,20.93
2024-01-22T14:29:39.442Z,21.51
2024-01-22T14:32:28.610Z,21.53
2024-01-22T14:35:15.285Z,21.72
2024-01-22T14:38:02.250Z,21.52
2024-01-22T14:40:49.128Z,21.17
2024-01-22T14:43:37.350Z,21.62
2024-01-22T14:46:27.459Z,20.31
2024-01-22T14:49:17.440Z,20.33
2024-01-22T14:52:05.137Z,21.23
2024-01-22T14:54:52.245Z,20.38
2024-01-22T14:57:40.134Z,20.88
2024-01-22T15:00:28.507Z,20.65
2024-01-22T15:03:15.566Z,20.58
2024-01-22T15:06:02.437Z,20.44
2024-01-22T15:08:50.583Z,20.43
2024-01-22T15:11:39.737Z,20.85
2024-01-22T15:14:28.740Z,21.52
2024-01-22T15:17:16.967Z,20.70
2024-01-22T15:20:04.061Z,21.61
2024-01-22T15:22:50.717Z,20.69
2024-01-22T15:25:37.585Z,20.36
2024-01-22T15:28:24.384Z,20.92
2024-01-22T15:31:12.870Z,20.34
2024-01-22T15:34:02.771Z,20.53
2024-01-22T15:36:49.667Z,20.67
2024-01-22T15:39:37.204Z,20.64
2024-01-22T15:42:24.154Z,20.79
2024-01-22T15:45:11.934Z,21.06
2024-01-22T15:47:58.577Z,20.78
2024-01-22T15:50:46.829Z,19.28
2024-01-22T15:53:34.758Z,19.43
2024-01-22T15:56:21.758Z,18.97
2024-01-22T15:59:09.309Z,19.91
2024-01-22T16:01:57.116Z,19.84
2024-01-22T16:04:44.768Z,20.29
2024-01-22T16:07:33.124Z,21.75
2024-01-22T16:10:19.853Z,20.50
2024-01-22T16:13:07.024Z,20.06
2024-01-22T16:15:55.441Z,21.33
2024-01-22T16:18:43.176Z,21.62
2024-01-22T16:21:30.287Z,20.65
2024-01-22T16:24:18.609Z,19.67
2024-01-22T16:27:06.604Z,20.22
2024-01-22T16:30:17.497Z,20.94
2024-01-22T16:33:12.178Z,21.27
2024-01-22T16:36:13.161Z,21.02
2024-01-22T16:39:08.423Z,21.10
2024-01-22T16:42:08.527Z,20.56
2024-01-22T16:45:10.433Z,20.74
2024-01-22T16:48:22.553Z,19.80
2024-01-22T16:51:19.884Z,21.32
2024-01-22T16:54:18.263Z,20.71
2024-01-22T16:57:07.790Z,21.59
2024-01-22T16:59:54.542Z,20.65
2024-01-22T17:02:42.185Z,20.29
2024-01-22T17:05:31.964Z,20.89
2024-01-22T17:08:20.361Z,19.74
2024-01-22T17:11:09.712Z,19.42
2024-01-22T17:13:59.244Z,20.54
2024-01-22T17:16:46.594Z,20.30
2024-01-22T17:19:34.509Z,21.24
2024-01-22T17:22:22.386Z,21.19
2024-01-22T17:25:11.592Z,21.36
2024-01-22T17:27:59.906Z,20.85
2024-01-22T17:30:48.983Z,20.77
2024-01-22T17:33:38.320Z,20.68
2024-01-22T17:36:25.875Z,20.89
2024-01-22T17:39:13.175Z,20.65
2024-01-22T17:42:01.316Z,19.94
2024-01-22T17:44:49.048Z,20.44
2024-01-22T17:47:38.355Z,20.23
2024-01-22T17:50:25.566Z,20.46
2024-01-22T17:53:12.901Z,20.36
2024-01-22T17:55:59.611Z,19.73
2024-01-22T17:58:46.601Z,19.09
2024-01-22T18:01:33.387Z,19.05
2024-01-22T18:04:21.785Z,19.96
2024-01-22T18:07:09.526Z,19.77
2024-01-22T18:09:56.239Z,18.20
2024-01-22T18:12:43.391Z,19.06
2024-01-22T18:15:30.161Z,19.46
2024-01-22T18:18:17.219Z,19.55
2024-01-22T18:21:06.138Z,19.80
2024-01-22T18:23:52.844Z,19.19
2024-01-22T18:26:39.645Z,18.82
2024-01-22T18:29:29.484Z,18.70
2024-01-22T18:32:16.210Z,19.09
2024-01-22T18:35:03.430Z,19.36
2024-01-22T18:37:52.386Z,19.03
2024-01-22T18:40:39.530Z,18.54
2024-01-22T18:43:27.035Z,19.10
2024-01-22T18:46:19.670Z,18.54
2024-01-22T18:49:09.521Z,19.27
2024-01-22T18:51:56.335Z,18.96
2024-01-22T18:54:44.610Z,19.78
2024-01-22T18:57:31.301Z,18.54
2024-01-22T19:00:19.290Z,18.39
2024-01-22T19:03:06.080Z,18.59
2024-01-22T19:05:52.761Z,19.37
2024-01-22T19:08:41.228Z,18.88
2024-01-22T19:11:30.722Z,18.48
2024-01-22T19:14:18.093Z,18.87
2024-01-22T19:17:06.749Z,18.40
2024-01-22T19:19:53.514Z,18.68
2024-01-22T19:22:41.293Z,18.35
2024-01-22T19:25:28.486Z,18.83
2024-01-22T19:28:16.934Z,19.03
2024-01-22T19:31:08.696Z,18.91
2024-01-22T19:34:01.349Z,18.02
2024-01-22T19:36:50.392Z,19.24
2024-01-22T19:39:37.481Z,19.23
2024-01-22T19:42:27.176Z,18.64
2024-01-22T19:45:15.722Z,18.58
2024-01-22T19:48:03.645Z,18.86
2024-01-22T19:51:00.282Z,18.89
2024-01-22T19:53:47.907Z,17.99
2024-01-22T19:56:42.643Z,18.39
2024-01-22T19:59:32.983Z,18.64
2024-01-22T20:02:21.492Z,19.19
2024-01-22T20:05:09.005Z,18.31
2024-01-22T20:07:56.812Z,18.77
2024-01-22T20:10:46.177Z,17.97
2024-01-22T20:13:34.650Z,18.83
2024-01-22T20:16:21.583Z,18.57
2024-01-22T20:19:10.175Z,17.62
2024-01-22T20:21:56.996Z,17.86
2024-01-22T20:24:43.628Z,18.25
2024-01-22T20:27:30.439Z,19.33
2024-01-22T20:30:17.518Z,17.87
2024-01-22T20:33:04.409Z,18.07
2024-01-22T20:35:53.567Z,18.53
2024-01-22T20:38:40.811Z,18.53
2024-01-22T20:41:29.784Z,19.10
2024-01-22T20:44:16.498Z,18.69
2024-01-22T20:47:03.552Z,18.67
2024-01-22T20:49:50.402Z,18.51
2024-01-22T20:52:39.786Z,19.07
2024-01-22T20:55:28.174Z,19.25
2024-01-22T20:58:15.499Z,18.89
2024-01-22T21:01:07.781Z,18.29
2024-01-22T21:03:54.945Z,19.29
2024-01-22T21:06:43.247Z,18.05
2024-01-22T21:09:31.312Z,18.94
2024-01-22T21:12:18.227Z,19.12
2024-01-22T21:15:06.016Z,19.29
2024-01-22T21:17:53.090Z,18.27
2024-01-22T21:20:39.986Z,18.59
2024-01-22T21:23:27.094Z,18.70
2024-01-22T21:26:18.027Z,17.81
2024-01-22T21:29:06.533Z,18.50
2024-01-22T21:31:53.603Z,18.39
2024-01-22T21:34:40.802Z,19.38
2024-01-22T21:37:27.502Z,18.61
2024-01-22T21:40:14.678Z,17.81
2024-01-22T21:43:02.721Z,17.87
2024-01-22T21:45:49.490Z,17.71
2024-01-22T21:48:36.486Z,18.26
2024-01-22T21:51:23.279Z,19.02
2024-01-22T21:54:14.291Z,18.98
2024-01-22T21:57:02.526Z,18.78
2024-01-22T21:59:51.753Z,17.84
2024-01-22T22:02:39.819Z,18.65
2024-01-22T22:05:27.281Z,18.14
2024-01-22T22:08:14.095Z,18.29
2024-01-22T22:11:00.866Z,18.39
2024-01-22T22:13:47.892Z,18.14
2024-01-22T22:16:36.369Z,18.25
2024-01-22T22:19:23.388Z,17.89
2024-01-22T22:22:15.215Z,17.48
2024-01-22T22:25:02.247Z,18.15
2024-01-22T22:27:53.193Z,17.94
2024-01-22T22:30:40.226Z,18.83
2024-01-22T22:33:28.770Z,17.70
2024-01-22T22:36:17.077Z,18.11
2024-01-22T22:39:03.712Z,18.13
2024-01-22T22:41:50.570Z,18.35
2024-01-22T22:44:37.462Z,17.66
2024-01-22T22:47:24.343Z,17.13
2024-01-22T22:50:12.724Z,18.42
2024-01-22T22:52:59.472Z,17.96
2024-01-22T22:55:46.570Z,18.23
2024-01-22T22:58:33.528Z,18.00
2024-01-22T23:01:20.094Z,17.29
2024-01-22T23:04:07.210Z,17.52
2024-01-22T23:06:55.216Z,17.14
2024-01-22T23:09:42.179Z,18.08
2024-01-22T23:12:29.155Z,18.87
2024-01-22T23:15:16.205Z,18.58
2024-01-22T23:18:02.929Z,18.16
2024-01-22T23:20:49.645Z,18.63
2024-01-22T23:23:47.505Z,17.14
2024-01-22T23:26:35.396Z,18.17
2024-01-22T23:29:22.382Z,17.07
2024-01-22T23:32:10.841Z,18.37
2024-01-22T23:34:57.681Z,18.27
2024-01-22T23:37:49.646Z,17.65
2024-01-22T23:40:38.096Z,17.18
2024-01-22T23:43:24.640Z,17.64
2024-01-22T23:46:12.798Z,18.20
2024-01-22T23:48:59.497Z,17.67
2024-01-22T23:51:46.194Z,17.62
2024-01-22T23:54:33.073Z,18.46
2024-01-22T23:57:21.299Z,17.84
